sensor_id;sensor_type;location;lat;lon;timestamp;pressure;altitude;pressure_sealevel;temperature;humidity
6038;BME280;3047;42.600;23.470;2023-03-04T00:00:51;93026.34;;;6.58;100.00
6038;BME280;3047;42.600;23.470;2023-03-04T00:03:18;93027.13;;;6.60;100.00
6038;BME280;3047;42.600;23.470;2023-03-04T00:05:45;93012.91;;;6.60;100.00
6038;BME280;3047;42.600;23.470;2023-03-04T00:08:12;93014.53;;;6.63;100.00
6038;BME280;3047;42.600;23.470;2023-03-04T00:10:41;93007.91;;;6.59;100.00
6038;BME280;3047;42.600;23.470;2023-03-04T00:13:07;93011.16;;;6.64;100.00
6038;BME280;3047;42.600;23.470;2023-03-04T00:15:34;93007.84;;;6.65;100.00
6038;BME280;3047;42.600;23.470;2023-03-04T00:18:01;93011.16;;;6.64;100.00
6038;BME280;3047;42.600;23.470;2023-03-04T00:20:27;93006.16;;;6.64;100.00
6038;BME280;3047;42.600;23.470;2023-03-04T00:22:54;93010.34;;;6.63;100.00
6038;BME280;3047;42.600;23.470;2023-03-04T00:25:21;93017.81;;;6.68;100.00
6038;BME280;3047;42.600;23.470;2023-03-04T00:27:49;93002.66;;;6.74;100.00
6038;BME280;3047;42.600;23.470;2023-03-04T00:30:16;93005.13;;;6.77;100.00
6038;BME280;3047;42.600;23.470;2023-03-04T00:32:42;92976.94;;;6.60;100.00
6038;BME280;3047;42.600;23.470;2023-03-04T00:35:09;93005.13;;;6.76;100.00
6038;BME280;3047;42.600;23.470;2023-03-04T00:37:36;93009.34;;;6.75;100.00
6038;BME280;3047;42.600;23.470;2023-03-04T00:40:03;93009.41;;;6.71;100.00
6038;BME280;3047;42.600;23.470;2023-03-04T00:42:30;93006.84;;;6.74;100.00
6038;BME280;3047;42.600;23.470;2023-03-04T00:44:58;92977.72;;;6.65;100.00
6038;BME280;3047;42.600;23.470;2023-03-04T00:47:25;92994.34;;;6.71;100.00
6038;BME280;3047;42.600;23.470;2023-03-04T00:49:52;92995.28;;;6.65;100.00
6038;BME280;3047;42.600;23.470;2023-03-04T00:52:18;92996.03;;;6.70;100.00
6038;BME280;3047;42.600;23.470;2023-03-04T00:54:45;93001.84;;;6.72;100.00
6038;BME280;3047;42.600;23.470;2023-03-04T00:57:12;92995.28;;;6.65;100.00
6038;BME280;3047;42.600;23.470;2023-03-04T00:59:38;93003.63;;;6.64;100.00
6038;BME280;3047;42.600;23.470;2023-03-04T01:02:09;92993.59;;;6.65;100.00
6038;BME280;3047;42.600;23.470;2023-03-04T01:04:36;92993.53;;;6.70;100.00
6038;BME280;3047;42.600;23.470;2023-03-04T01:07:03;92963.66;;;6.53;100.00
6038;BME280;3047;42.600;23.470;2023-03-04T01:09:30;92969.47;;;6.57;100.00
6038;BME280;3047;42.600;23.470;2023-03-04T01:11:57;92987.59;;;6.74;100.00
6038;BME280;3047;42.600;23.470;2023-03-04T01:14:24;92985.97;;;6.72;100.00
6038;BME280;3047;42.600;23.470;2023-03-04T01:16:53;92982.63;;;6.71;100.00
6038;BME280;3047;42.600;23.470;2023-03-04T01:19:21;92984.28;;;6.72;100.00
6038;BME280;3047;42.600;23.470;2023-03-04T01:21:48;92973.47;;;6.68;100.00
6038;BME280;3047;42.600;23.470;2023-03-04T01:24:15;92975.88;;;6.75;100.00
6038;BME280;3047;42.600;23.470;2023-03-04T01:26:42;92972.59;;;6.71;100.00
6038;BME280;3047;42.600;23.470;2023-03-04T01:29:08;92968.50;;;6.65;100.00
6038;BME280;3047;42.600;23.470;2023-03-04T01:31:35;92964.34;;;6.63;100.00
6038;BME280;3047;42.600;23.470;2023-03-04T01:34:02;92967.72;;;6.62;100.00
6038;BME280;3047;42.600;23.470;2023-03-04T01:36:30;92964.41;;;6.58;100.00
6038;BME280;3047;42.600;23.470;2023-03-04T01:38:56;92960.34;;;6.51;100.00
6038;BME280;3047;42.600;23.470;2023-03-04T01:41:24;92961.22;;;6.49;100.00
6038;BME280;3047;42.600;23.470;2023-03-04T01:43:57;92972.03;;;6.54;100.00
6038;BME280;3047;42.600;23.470;2023-03-04T01:46:25;92970.38;;;6.53;100.00
6038;BME280;3047;42.600;23.470;2023-03-04T01:48:52;92964.50;;;6.54;100.00
6038;BME280;3047;42.600;23.470;2023-03-04T01:51:19;92956.94;;;6.55;100.00
6038;BME280;3047;42.600;23.470;2023-03-04T01:53:49;92946.94;;;6.52;100.00
6038;BME280;3047;42.600;23.470;2023-03-04T01:56:22;92958.63;;;6.55;100.00
6038;BME280;3047;42.600;23.470;2023-03-04T01:59:07;92958.66;;;6.53;100.00
6038;BME280;3047;42.600;23.470;2023-03-04T02:01:35;92931.31;;;6.36;100.00
6038;BME280;3047;42.600;23.470;2023-03-04T02:04:03;92956.84;;;6.61;100.00
6038;BME280;3047;42.600;23.470;2023-03-04T02:06:30;92955.94;;;6.64;100.00
6038;BME280;3047;42.600;23.470;2023-03-04T02:08:59;92950.13;;;6.63;100.00
6038;BME280;3047;42.600;23.470;2023-03-04T02:11:25;92950.13;;;6.63;100.00
6038;BME280;3047;42.600;23.470;2023-03-04T02:13:52;92955.16;;;6.62;100.00
6038;BME280;3047;42.600;23.470;2023-03-04T02:16:19;92941.81;;;6.60;100.00
6038;BME280;3047;42.600;23.470;2023-03-04T02:18:46;92923.69;;;6.42;100.00
6038;BME280;3047;42.600;23.470;2023-03-04T02:21:18;92849.13;;;6.00;100.00
6038;BME280;3047;42.600;23.470;2023-03-04T02:23:56;92957.63;;;6.65;100.00
6038;BME280;3047;42.600;23.470;2023-03-04T02:26:27;92960.22;;;6.60;100.00
6038;BME280;3047;42.600;23.470;2023-03-04T02:28:56;92950.34;;;6.50;100.00
6038;BME280;3047;42.600;23.470;2023-03-04T02:31:26;92950.25;;;6.54;100.00
6038;BME280;3047;42.600;23.470;2023-03-04T02:33:56;92946.91;;;6.55;100.00
6038;BME280;3047;42.600;23.470;2023-03-04T02:36:24;92929.56;;;6.40;100.00
6038;BME280;3047;42.600;23.470;2023-03-04T02:38:52;92946.19;;;6.49;100.00
6038;BME280;3047;42.600;23.470;2023-03-04T02:41:22;92946.91;;;6.55;100.00
6038;BME280;3047;42.600;23.470;2023-03-04T02:43:52;92941.84;;;6.58;100.00
6038;BME280;3047;42.600;23.470;2023-03-04T02:46:19;92944.38;;;6.55;100.00
6038;BME280;3047;42.600;23.470;2023-03-04T02:48:46;92942.75;;;6.54;100.00
6038;BME280;3047;42.600;23.470;2023-03-04T02:51:13;92914.50;;;6.40;100.00
6038;BME280;3047;42.600;23.470;2023-03-04T02:53:39;92940.19;;;6.56;100.00
6038;BME280;3047;42.600;23.470;2023-03-04T02:56:07;92939.38;;;6.57;100.00
6038;BME280;3047;42.600;23.470;2023-03-04T02:58:33;92938.63;;;6.50;100.00
6038;BME280;3047;42.600;23.470;2023-03-04T03:01:01;92938.66;;;6.49;100.00
6038;BME280;3047;42.600;23.470;2023-03-04T03:03:28;92912.19;;;6.29;100.00
6038;BME280;3047;42.600;23.470;2023-03-04T03:05:55;92937.13;;;6.38;100.00
6038;BME280;3047;42.600;23.470;2023-03-04T03:08:22;92939.75;;;6.31;100.00
6038;BME280;3047;42.600;23.470;2023-03-04T03:10:48;92937.31;;;6.26;100.00
6038;BME280;3047;42.600;23.470;2023-03-04T03:13:15;92911.00;;;5.96;100.00
6038;BME280;3047;42.600;23.470;2023-03-04T03:15:42;92945.09;;;6.06;100.00
6038;BME280;3047;42.600;23.470;2023-03-04T03:18:10;92940.91;;;6.08;100.00
6038;BME280;3047;42.600;23.470;2023-03-04T03:20:37;92924.47;;;5.86;100.00
6038;BME280;3047;42.600;23.470;2023-03-04T03:23:04;92936.00;;;6.01;100.00
6038;BME280;3047;42.600;23.470;2023-03-04T03:25:31;92938.53;;;5.98;100.00
6038;BME280;3047;42.600;23.470;2023-03-04T03:27:57;92941.00;;;6.01;100.00
6038;BME280;3047;42.600;23.470;2023-03-04T03:30:24;92915.28;;;5.85;100.00
6038;BME280;3047;42.600;23.470;2023-03-04T03:32:51;92923.78;;;5.73;100.00
6038;BME280;3047;42.600;23.470;2023-03-04T03:35:19;92944.06;;;5.55;100.00
6038;BME280;3047;42.600;23.470;2023-03-04T03:37:45;92929.91;;;5.51;100.00
6038;BME280;3047;42.600;23.470;2023-03-04T03:40:13;92938.34;;;5.45;100.00
6038;BME280;3047;42.600;23.470;2023-03-04T03:42:40;92936.66;;;5.45;100.00
6038;BME280;3047;42.600;23.470;2023-03-04T03:45:07;92910.16;;;5.28;100.00
6038;BME280;3047;42.600;23.470;2023-03-04T03:47:34;92937.63;;;5.34;100.00
6038;BME280;3047;42.600;23.470;2023-03-04T03:50:01;92878.72;;;5.02;100.00
6038;BME280;3047;42.600;23.470;2023-03-04T03:52:29;92937.56;;;5.40;100.00
6038;BME280;3047;42.600;23.470;2023-03-04T03:54:56;92933.34;;;5.43;100.00
6038;BME280;3047;42.600;23.470;2023-03-04T03:57:26;92925.94;;;5.34;100.00
6038;BME280;3047;42.600;23.470;2023-03-04T03:59:53;92925.25;;;5.21;100.00
6038;BME280;3047;42.600;23.470;2023-03-04T04:02:19;92921.09;;;5.20;100.00
6038;BME280;3047;42.600;23.470;2023-03-04T04:04:46;92927.75;;;5.23;100.00
6038;BME280;3047;42.600;23.470;2023-03-04T04:07:13;92888.84;;;4.94;100.00
6038;BME280;3047;42.600;23.470;2023-03-04T04:09:41;92917.00;;;5.10;100.00
6038;BME280;3047;42.600;23.470;2023-03-04T04:12:08;92924.66;;;5.00;100.00
6038;BME280;3047;42.600;23.470;2023-03-04T04:14:34;92921.28;;;5.01;100.00
6038;BME280;3047;42.600;23.470;2023-03-04T04:17:01;92922.03;;;5.09;100.00
6038;BME280;3047;42.600;23.470;2023-03-04T04:19:28;92921.22;;;5.08;100.00
6038;BME280;3047;42.600;23.470;2023-03-04T04:21:54;92921.19;;;5.10;100.00
6038;BME280;3047;42.600;23.470;2023-03-04T04:24:21;92920.34;;;5.12;100.00
6038;BME280;3047;42.600;23.470;2023-03-04T04:26:49;92917.88;;;5.11;100.00
6038;BME280;3047;42.600;23.470;2023-03-04T04:29:16;92922.00;;;5.12;100.00
6038;BME280;3047;42.600;23.470;2023-03-04T04:31:43;92912.09;;;5.03;100.00
6038;BME280;3047;42.600;23.470;2023-03-04T04:34:10;92917.09;;;5.04;100.00
6038;BME280;3047;42.600;23.470;2023-03-04T04:36:36;92923.63;;;5.17;100.00
6038;BME280;3047;42.600;23.470;2023-03-04T04:39:03;92920.25;;;5.18;100.00
6038;BME280;3047;42.600;23.470;2023-03-04T04:41:38;92900.38;;;5.06;100.00
6038;BME280;3047;42.600;23.470;2023-03-04T04:44:07;92917.72;;;5.21;100.00
6038;BME280;3047;42.600;23.470;2023-03-04T04:46:34;92916.13;;;5.16;100.00
6038;BME280;3047;42.600;23.470;2023-03-04T04:49:01;92909.50;;;5.10;100.00
6038;BME280;3047;42.600;23.470;2023-03-04T04:51:28;92909.50;;;5.10;100.00
6038;BME280;3047;42.600;23.470;2023-03-04T04:53:55;92917.88;;;5.08;100.00
6038;BME280;3047;42.600;23.470;2023-03-04T04:56:23;92921.25;;;5.07;100.00
6038;BME280;3047;42.600;23.470;2023-03-04T04:58:51;92907.97;;;4.97;100.00
6038;BME280;3047;42.600;23.470;2023-03-04T05:01:20;92913.00;;;4.95;100.00
6038;BME280;3047;42.600;23.470;2023-03-04T05:03:46;92917.22;;;4.92;100.00
6038;BME280;3047;42.600;23.470;2023-03-04T05:06:15;92918.88;;;4.93;100.00
6038;BME280;3047;42.600;23.470;2023-03-04T05:08:42;92929.69;;;4.95;100.00
6038;BME280;3047;42.600;23.470;2023-03-04T05:11:08;92918.09;;;4.88;100.00
6038;BME280;3047;42.600;23.470;2023-03-04T05:13:35;92899.84;;;4.77;100.00
6038;BME280;3047;42.600;23.470;2023-03-04T05:16:02;92935.59;;;4.91;100.00
6038;BME280;3047;42.600;23.470;2023-03-04T05:18:31;92932.19;;;4.95;100.00
6038;BME280;3047;42.600;23.470;2023-03-04T05:20:59;92933.00;;;4.97;100.00
6038;BME280;3047;42.600;23.470;2023-03-04T05:23:28;92943.00;;;4.97;100.00
6038;BME280;3047;42.600;23.470;2023-03-04T05:25:55;92944.72;;;4.93;100.00
6038;BME280;3047;42.600;23.470;2023-03-04T05:28:22;92944.72;;;4.95;100.00
6038;BME280;3047;42.600;23.470;2023-03-04T05:30:49;92938.94;;;4.88;100.00
6038;BME280;3047;42.600;23.470;2023-03-04T05:33:17;92956.34;;;4.99;100.00
6038;BME280;3047;42.600;23.470;2023-03-04T05:35:46;92952.19;;;5.00;100.00
6038;BME280;3047;42.600;23.470;2023-03-04T05:38:15;92959.63;;;5.07;100.00
6038;BME280;3047;42.600;23.470;2023-03-04T05:40:43;92957.03;;;5.13;100.00
6038;BME280;3047;42.600;23.470;2023-03-04T05:43:10;92953.69;;;5.14;100.00
6038;BME280;3047;42.600;23.470;2023-03-04T05:45:38;92952.84;;;5.14;100.00
6038;BME280;3047;42.600;23.470;2023-03-04T05:48:06;92930.38;;;5.11;100.00
6038;BME280;3047;42.600;23.470;2023-03-04T05:50:33;92953.50;;;5.33;100.00
6038;BME280;3047;42.600;23.470;2023-03-04T05:53:02;92956.78;;;5.39;100.00
6038;BME280;3047;42.600;23.470;2023-03-04T05:55:28;92948.28;;;5.51;100.00
6038;BME280;3047;42.600;23.470;2023-03-04T05:57:56;92959.03;;;5.61;100.00
6038;BME280;3047;42.600;23.470;2023-03-04T06:00:23;92954.78;;;5.67;100.00
6038;BME280;3047;42.600;23.470;2023-03-04T06:02:50;92958.03;;;5.76;100.00
6038;BME280;3047;42.600;23.470;2023-03-04T06:05:16;92963.81;;;5.81;100.00
6038;BME280;3047;42.600;23.470;2023-03-04T06:07:43;92966.22;;;5.88;100.00
6038;BME280;3047;42.600;23.470;2023-03-04T06:10:14;92967.88;;;5.89;100.00
6038;BME280;3047;42.600;23.470;2023-03-04T06:12:41;92965.25;;;5.99;100.00
6038;BME280;3047;42.600;23.470;2023-03-04T06:15:08;92965.31;;;5.96;100.00
6038;BME280;3047;42.600;23.470;2023-03-04T06:17:35;92982.94;;;5.88;100.00
6038;BME280;3047;42.600;23.470;2023-03-04T06:20:03;92967.84;;;5.91;100.00
6038;BME280;3047;42.600;23.470;2023-03-04T06:22:31;92963.69;;;5.93;100.00
6038;BME280;3047;42.600;23.470;2023-03-04T06:24:58;92957.00;;;5.87;100.00
6038;BME280;3047;42.600;23.470;2023-03-04T06:27:26;92963.66;;;5.96;100.00
6038;BME280;3047;42.600;23.470;2023-03-04T06:29:53;92970.28;;;6.00;100.00
6038;BME280;3047;42.600;23.470;2023-03-04T06:32:20;92967.00;;;5.93;100.00
6038;BME280;3047;42.600;23.470;2023-03-04T06:34:47;92973.59;;;6.01;100.00
6038;BME280;3047;42.600;23.470;2023-03-04T06:37:14;92978.59;;;6.04;100.00
6038;BME280;3047;42.600;23.470;2023-03-04T06:39:40;92971.97;;;6.00;100.00
6038;BME280;3047;42.600;23.470;2023-03-04T06:42:07;92977.66;;;6.09;100.00
6038;BME280;3047;42.600;23.470;2023-03-04T06:44:35;92976.09;;;6.02;100.00
6038;BME280;3047;42.600;23.470;2023-03-04T06:47:02;92967.78;;;6.00;100.00
6038;BME280;3047;42.600;23.470;2023-03-04T06:49:28;92990.19;;;6.09;100.00
6038;BME280;3047;42.600;23.470;2023-03-04T06:51:55;92981.03;;;6.08;100.00
6038;BME280;3047;42.600;23.470;2023-03-04T06:54:22;92987.66;;;6.11;100.00
6038;BME280;3047;42.600;23.470;2023-03-04T06:56:48;92983.47;;;6.13;100.00
6038;BME280;3047;42.600;23.470;2023-03-04T06:59:15;92994.22;;;6.19;100.00
6038;BME280;3047;42.600;23.470;2023-03-04T07:01:43;92989.19;;;6.24;100.00
6038;BME280;3047;42.600;23.470;2023-03-04T07:04:12;92992.50;;;6.25;100.00
6038;BME280;3047;42.600;23.470;2023-03-04T07:06:39;92990.06;;;6.20;100.00
6038;BME280;3047;42.600;23.470;2023-03-04T07:09:06;92965.97;;;6.10;100.00
6038;BME280;3047;42.600;23.470;2023-03-04T07:11:32;93000.09;;;6.20;100.00
6038;BME280;3047;42.600;23.470;2023-03-04T07:13:59;92965.25;;;5.99;100.00
6038;BME280;3047;42.600;23.470;2023-03-04T07:16:26;92978.50;;;6.10;100.00
6038;BME280;3047;42.600;23.470;2023-03-04T07:18:54;93000.91;;;6.22;100.00
6038;BME280;3047;42.600;23.470;2023-03-04T07:21:21;92995.16;;;6.14;100.00
6038;BME280;3047;42.600;23.470;2023-03-04T07:23:48;92998.66;;;6.02;100.00
6038;BME280;3047;42.600;23.470;2023-03-04T07:26:14;92992.75;;;6.08;100.00
6038;BME280;3047;42.600;23.470;2023-03-04T07:28:41;93000.13;;;6.17;100.00
6038;BME280;3047;42.600;23.470;2023-03-04T07:31:11;93002.63;;;6.20;100.00
6038;BME280;3047;42.600;23.470;2023-03-04T07:33:38;93000.94;;;6.21;100.00
6038;BME280;3047;42.600;23.470;2023-03-04T07:36:06;93005.94;;;6.21;100.00
6038;BME280;3047;42.600;23.470;2023-03-04T07:38:33;93004.13;;;6.30;100.00
6038;BME280;3047;42.600;23.470;2023-03-04T07:41:00;93009.25;;;6.23;100.00
6038;BME280;3047;42.600;23.470;2023-03-04T07:43:27;92996.91;;;6.09;100.00
6038;BME280;3047;42.600;23.470;2023-03-04T07:45:58;92998.50;;;6.16;100.00
6038;BME280;3047;42.600;23.470;2023-03-04T07:48:26;93001.00;;;6.16;100.00
6038;BME280;3047;42.600;23.470;2023-03-04T07:51:04;92995.22;;;6.09;100.00
6038;BME280;3047;42.600;23.470;2023-03-04T07:53:33;93002.75;;;6.09;100.00
6038;BME280;3047;42.600;23.470;2023-03-04T07:55:59;92986.94;;;6.03;100.00
6038;BME280;3047;42.600;23.470;2023-03-04T07:58:26;93002.72;;;6.12;100.00
6038;BME280;3047;42.600;23.470;2023-03-04T08:00:53;93000.19;;;6.11;100.00
6038;BME280;3047;42.600;23.470;2023-03-04T08:03:19;93001.84;;;6.13;100.00
6038;BME280;3047;42.600;23.470;2023-03-04T08:05:46;93007.66;;;6.17;100.00
6038;BME280;3047;42.600;23.470;2023-03-04T08:08:13;92999.31;;;6.16;100.00
6038;BME280;3047;42.600;23.470;2023-03-04T08:10:41;92966.88;;;6.04;100.00
6038;BME280;3047;42.600;23.470;2023-03-04T08:13:08;92998.34;;;6.25;100.00
6038;BME280;3047;42.600;23.470;2023-03-04T08:15:39;92931.25;;;5.78;100.00
6038;BME280;3047;42.600;23.470;2023-03-04T08:18:05;92994.19;;;6.23;100.00
6038;BME280;3047;42.600;23.470;2023-03-04T08:20:32;92996.63;;;6.27;100.00
6038;BME280;3047;42.600;23.470;2023-03-04T08:22:59;92990.75;;;6.30;100.00
6038;BME280;3047;42.600;23.470;2023-03-04T08:25:25;92994.06;;;6.33;100.00
6038;BME280;3047;42.600;23.470;2023-03-04T08:27:54;92993.16;;;6.37;100.00
6038;BME280;3047;42.600;23.470;2023-03-04T08:30:20;92989.78;;;6.40;100.00
6038;BME280;3047;42.600;23.470;2023-03-04T08:32:47;92985.91;;;6.17;100.00
6038;BME280;3047;42.600;23.470;2023-03-04T08:35:14;92991.56;;;6.33;100.00
6038;BME280;3047;42.600;23.470;2023-03-04T08:37:40;92987.28;;;6.38;100.00
6038;BME280;3047;42.600;23.470;2023-03-04T08:40:09;92987.25;;;6.41;100.00
6038;BME280;3047;42.600;23.470;2023-03-04T08:42:36;92991.38;;;6.44;100.00
6038;BME280;3047;42.600;23.470;2023-03-04T08:45:05;92963.97;;;6.33;100.00
6038;BME280;3047;42.600;23.470;2023-03-04T08:47:32;92993.00;;;6.50;100.00
6038;BME280;3047;42.600;23.470;2023-03-04T08:49:59;92986.31;;;6.49;100.00
6038;BME280;3047;42.600;23.470;2023-03-04T08:52:27;92969.94;;;6.25;100.00
6038;BME280;3047;42.600;23.470;2023-03-04T08:54:54;92988.09;;;6.42;100.00
6038;BME280;3047;42.600;23.470;2023-03-04T08:57:21;92995.50;;;6.50;100.00
6038;BME280;3047;42.600;23.470;2023-03-04T08:59:48;92977.25;;;6.38;100.00
6038;BME280;3047;42.600;23.470;2023-03-04T09:02:16;92992.16;;;6.49;100.00
6038;BME280;3047;42.600;23.470;2023-03-04T09:04:43;92983.81;;;6.49;100.00
6038;BME280;3047;42.600;23.470;2023-03-04T09:07:10;92985.47;;;6.50;100.00
6038;BME280;3047;42.600;23.470;2023-03-04T09:09:38;92982.97;;;6.50;100.00
6038;BME280;3047;42.600;23.470;2023-03-04T09:12:06;92983.75;;;6.53;100.00
6038;BME280;3047;42.600;23.470;2023-03-04T09:14:33;92973.66;;;6.55;100.00
6038;BME280;3047;42.600;23.470;2023-03-04T09:17:00;92967.78;;;6.56;100.00
6038;BME280;3047;42.600;23.470;2023-03-04T09:19:28;92945.47;;;6.40;100.00
6038;BME280;3047;42.600;23.470;2023-03-04T09:21:55;92972.69;;;6.63;100.00
6038;BME280;3047;42.600;23.470;2023-03-04T09:24:23;92966.81;;;6.66;100.00
6038;BME280;3047;42.600;23.470;2023-03-04T09:26:50;92932.69;;;6.54;100.00
6038;BME280;3047;42.600;23.470;2023-03-04T09:29:17;92962.56;;;6.69;100.00
6038;BME280;3047;42.600;23.470;2023-03-04T09:31:44;92967.59;;;6.68;100.00
6038;BME280;3047;42.600;23.470;2023-03-04T09:34:11;92973.44;;;6.70;100.00
6038;BME280;3047;42.600;23.470;2023-03-04T09:36:39;92897.22;;;6.25;100.00
6038;BME280;3047;42.600;23.470;2023-03-04T09:39:06;92959.22;;;6.71;100.00
6038;BME280;3047;42.600;23.470;2023-03-04T09:41:36;92962.50;;;6.74;100.00
6038;BME280;3047;42.600;23.470;2023-03-04T09:44:06;92958.25;;;6.78;100.00
6038;BME280;3047;42.600;23.470;2023-03-04T09:46:39;92961.47;;;6.86;100.00
6038;BME280;3047;42.600;23.470;2023-03-04T09:49:10;92961.53;;;6.83;100.00
6038;BME280;3047;42.600;23.470;2023-03-04T09:51:50;92954.72;;;6.89;100.00
6038;BME280;3047;42.600;23.470;2023-03-04T09:54:29;92952.13;;;6.94;100.00
6038;BME280;3047;42.600;23.470;2023-03-04T09:56:59;92953.00;;;6.91;100.00
6038;BME280;3047;42.600;23.470;2023-03-04T09:59:42;92953.75;;;6.98;100.00
6038;BME280;3047;42.600;23.470;2023-03-04T10:02:17;92950.28;;;7.05;100.00
6038;BME280;3047;42.600;23.470;2023-03-04T10:04:48;92949.41;;;7.05;100.00
6038;BME280;3047;42.600;23.470;2023-03-04T10:07:20;92924.53;;;6.92;100.00
6038;BME280;3047;42.600;23.470;2023-03-04T10:09:53;92940.81;;;7.19;100.00
6038;BME280;3047;42.600;23.470;2023-03-04T10:12:24;92944.13;;;7.20;100.00
6038;BME280;3047;42.600;23.470;2023-03-04T10:14:58;92941.63;;;7.22;100.00
6038;BME280;3047;42.600;23.470;2023-03-04T10:17:32;92944.97;;;7.21;100.00
6038;BME280;3047;42.600;23.470;2023-03-04T10:20:04;92929.88;;;7.22;100.00
6038;BME280;3047;42.600;23.470;2023-03-04T10:22:35;92921.78;;;7.06;100.00
6038;BME280;3047;42.600;23.470;2023-03-04T10:25:16;92941.47;;;7.29;100.00
6038;BME280;3047;42.600;23.470;2023-03-04T10:27:48;92938.09;;;7.30;100.00
6038;BME280;3047;42.600;23.470;2023-03-04T10:30:21;92931.44;;;7.29;100.00
6038;BME280;3047;42.600;23.470;2023-03-04T10:32:49;92889.97;;;7.07;100.00
6038;BME280;3047;42.600;23.470;2023-03-04T10:35:16;92918.69;;;7.37;100.00
6038;BME280;3047;42.600;23.470;2023-03-04T10:37:47;92907.72;;;7.41;100.00
6038;BME280;3047;42.600;23.470;2023-03-04T10:40:19;92914.34;;;7.47;100.00
6038;BME280;3047;42.600;23.470;2023-03-04T10:42:48;92883.00;;;7.21;100.00
6038;BME280;3047;42.600;23.470;2023-03-04T10:45:20;92903.84;;;7.25;100.00
6038;BME280;3047;42.600;23.470;2023-03-04T10:47:51;92880.56;;;7.16;100.00
6038;BME280;3047;42.600;23.470;2023-03-04T10:50:22;92874.63;;;7.21;100.00
6038;BME280;3047;42.600;23.470;2023-03-04T10:52:50;92836.69;;;6.91;100.00
6038;BME280;3047;42.600;23.470;2023-03-04T10:55:21;92899.59;;;7.28;100.00
6038;BME280;3047;42.600;23.470;2023-03-04T10:57:50;92902.97;;;7.27;100.00
6038;BME280;3047;42.600;23.470;2023-03-04T11:00:24;92894.56;;;7.28;100.00
6038;BME280;3047;42.600;23.470;2023-03-04T11:02:51;92883.59;;;7.34;100.00
6038;BME280;3047;42.600;23.470;2023-03-04T11:05:19;92883.47;;;7.41;100.00
6038;BME280;3047;42.600;23.470;2023-03-04T11:07:50;92832.59;;;7.29;100.00
6038;BME280;3047;42.600;23.470;2023-03-04T11:10:19;92868.28;;;7.44;100.00
6038;BME280;3047;42.600;23.470;2023-03-04T11:12:48;92868.25;;;7.48;100.00
6038;BME280;3047;42.600;23.470;2023-03-04T11:15:17;92794.53;;;7.07;100.00
6038;BME280;3047;42.600;23.470;2023-03-04T11:17:47;92829.22;;;7.31;100.00
6038;BME280;3047;42.600;23.470;2023-03-04T11:20:18;92857.81;;;7.66;100.00
6038;BME280;3047;42.600;23.470;2023-03-04T11:22:52;92847.69;;;7.69;100.00
6038;BME280;3047;42.600;23.470;2023-03-04T11:25:25;92848.28;;;7.80;100.00
6038;BME280;3047;42.600;23.470;2023-03-04T11:27:54;92846.56;;;7.82;100.00
6038;BME280;3047;42.600;23.470;2023-03-04T11:30:37;92843.41;;;7.74;100.00
6038;BME280;3047;42.600;23.470;2023-03-04T11:33:15;92845.72;;;7.83;100.00
6038;BME280;3047;42.600;23.470;2023-03-04T11:35:51;92813.22;;;7.74;100.00
6038;BME280;3047;42.600;23.470;2023-03-04T11:38:26;92838.53;;;8.04;100.00
6038;BME280;3047;42.600;23.470;2023-03-04T11:40:57;92832.63;;;8.05;100.00
6038;BME280;3047;42.600;23.470;2023-03-04T11:43:29;92839.41;;;8.03;100.00
6038;BME280;3047;42.600;23.470;2023-03-04T11:46:22;92813.53;;;7.98;100.00
6038;BME280;3047;42.600;23.470;2023-03-04T11:48:58;92832.41;;;8.14;100.00
6038;BME280;3047;42.600;23.470;2023-03-04T11:51:33;92803.66;;;7.90;100.00
6038;BME280;3047;42.600;23.470;2023-03-04T11:54:15;92820.19;;;8.00;100.00
6038;BME280;3047;42.600;23.470;2023-03-04T11:56:44;92814.53;;;7.90;100.00
6038;BME280;3047;42.600;23.470;2023-03-04T12:02:22;92807.59;;;8.00;100.00
6038;BME280;3047;42.600;23.470;2023-03-04T12:05:14;92804.66;;;8.18;100.00
6038;BME280;3047;42.600;23.470;2023-03-04T12:08:07;92792.09;;;8.18;100.00
6038;BME280;3047;42.600;23.470;2023-03-04T12:10:48;92805.06;;;8.37;100.00
6038;BME280;3047;42.600;23.470;2023-03-04T12:16:14;92801.41;;;8.51;100.00
6038;BME280;3047;42.600;23.470;2023-03-04T12:18:54;92783.31;;;8.33;100.00
6038;BME280;3047;42.600;23.470;2023-03-04T12:21:39;92797.84;;;8.58;100.00
6038;BME280;3047;42.600;23.470;2023-03-04T12:24:27;92796.19;;;8.57;100.00
6038;BME280;3047;42.600;23.470;2023-03-04T12:27:00;92794.69;;;8.50;100.00
6038;BME280;3047;42.600;23.470;2023-03-04T12:29:37;92768.22;;;8.33;100.00
6038;BME280;3047;42.600;23.470;2023-03-04T12:32:14;92794.16;;;8.37;100.00
6038;BME280;3047;42.600;23.470;2023-03-04T12:34:57;92788.28;;;8.36;100.00
6038;BME280;3047;42.600;23.470;2023-03-04T12:37:38;92788.25;;;8.38;100.00
6038;BME280;3047;42.600;23.470;2023-03-04T12:40:35;92783.88;;;8.46;100.00
6038;BME280;3047;42.600;23.470;2023-03-04T12:43:19;92781.00;;;8.60;100.00
6038;BME280;3047;42.600;23.470;2023-03-04T12:45:56;92785.53;;;8.47;100.00
6038;BME280;3047;42.600;23.470;2023-03-04T12:48:29;92768.81;;;8.45;100.00
6038;BME280;3047;42.600;23.470;2023-03-04T12:53:55;92756.56;;;8.31;100.00
6038;BME280;3047;42.600;23.470;2023-03-04T12:56:26;92762.97;;;8.44;100.00
6038;BME280;3047;42.600;23.470;2023-03-04T12:58:55;92762.88;;;8.47;100.00
6038;BME280;3047;42.600;23.470;2023-03-04T13:01:25;92755.22;;;8.52;100.00
6038;BME280;3047;42.600;23.470;2023-03-04T13:04:00;92760.88;;;8.60;100.00
6038;BME280;3047;42.600;23.470;2023-03-04T13:06:35;92752.44;;;8.61;100.00
6038;BME280;3047;42.600;23.470;2023-03-04T13:09:11;92754.28;;;8.56;100.00
6038;BME280;3047;42.600;23.470;2023-03-04T13:11:49;92749.31;;;8.53;100.00
6038;BME280;3047;42.600;23.470;2023-03-04T13:14:35;92747.50;;;8.58;100.00
6038;BME280;3047;42.600;23.470;2023-03-04T13:20:16;92741.50;;;8.62;100.00
6038;BME280;3047;42.600;23.470;2023-03-04T13:22:45;92739.78;;;8.64;100.00
6038;BME280;3047;42.600;23.470;2023-03-04T13:25:34;92741.34;;;8.68;100.00
6038;BME280;3047;42.600;23.470;2023-03-04T13:28:15;92729.88;;;8.58;100.00
6038;BME280;3047;42.600;23.470;2023-03-04T13:31:22;92734.25;;;8.51;100.00
6038;BME280;3047;42.600;23.470;2023-03-04T13:34:01;92721.75;;;8.47;100.00